sensor_id;sensor_type;location;lat;lon;timestamp;P1;durP1;ratioP1;P2;durP2;ratioP2
14203;SDS011;7185;51.854;6.622;2022-12-11T00:01:08;66.47;;;18.02;;
14203;SDS011;7185;51.854;6.622;2022-12-11T00:03:40;69.55;;;17.38;;
14203;SDS011;7185;51.854;6.622;2022-12-11T00:06:13;67.30;;;19.15;;
14203;SDS011;7185;51.854;6.622;2022-12-11T00:08:46;68.07;;;19.23;;
14203;SDS011;7185;51.854;6.622;2022-12-11T00:11:21;72.45;;;20.65;;
14203;SDS011;7185;51.854;6.622;2022-12-11T00:13:53;71.55;;;19.42;;
14203;SDS011;7185;51.854;6.622;2022-12-11T00:16:26;76.80;;;17.92;;
14203;SDS011;7185;51.854;6.622;2022-12-11T00:18:57;72.53;;;19.27;;
14203;SDS011;7185;51.854;6.622;2022-12-11T00:21:29;69.72;;;18.85;;
14203;SDS011;7185;51.854;6.622;2022-12-11T00:24:01;66.00;;;19.17;;
14203;SDS011;7185;51.854;6.622;2022-12-11T00:26:32;66.90;;;18.33;;
14203;SDS011;7185;51.854;6.622;2022-12-11T00:29:04;67.72;;;18.90;;
14203;SDS011;7185;51.854;6.622;2022-12-11T00:31:38;76.30;;;19.77;;
14203;SDS011;7185;51.854;6.622;2022-12-11T00:34:10;73.60;;;19.50;;
14203;SDS011;7185;51.854;6.622;2022-12-11T00:36:42;68.03;;;19.63;;
14203;SDS011;7185;51.854;6.622;2022-12-11T00:39:14;62.00;;;18.58;;
14203;SDS011;7185;51.854;6.622;2022-12-11T00:41:46;68.55;;;18.58;;
14203;SDS011;7185;51.854;6.622;2022-12-11T00:44:17;71.93;;;19.88;;
14203;SDS011;7185;51.854;6.622;2022-12-11T00:46:50;71.15;;;18.33;;
14203;SDS011;7185;51.854;6.622;2022-12-11T00:49:22;72.30;;;19.58;;
14203;SDS011;7185;51.854;6.622;2022-12-11T00:51:53;66.75;;;18.08;;
14203;SDS011;7185;51.854;6.622;2022-12-11T00:54:25;72.22;;;19.67;;
14203;SDS011;7185;51.854;6.622;2022-12-11T00:56:56;65.30;;;17.02;;
14203;SDS011;7185;51.854;6.622;2022-12-11T00:59:28;60.45;;;18.98;;
14203;SDS011;7185;51.854;6.622;2022-12-11T01:02:01;64.32;;;17.67;;
14203;SDS011;7185;51.854;6.622;2022-12-11T01:04:33;68.35;;;17.80;;
14203;SDS011;7185;51.854;6.622;2022-12-11T01:07:05;72.15;;;19.63;;
14203;SDS011;7185;51.854;6.622;2022-12-11T01:09:37;76.70;;;19.20;;
14203;SDS011;7185;51.854;6.622;2022-12-11T01:12:26;77.65;;;18.67;;
14203;SDS011;7185;51.854;6.622;2022-12-11T01:14:57;68.45;;;17.17;;
14203;SDS011;7185;51.854;6.622;2022-12-11T01:17:30;66.95;;;18.20;;
14203;SDS011;7185;51.854;6.622;2022-12-11T01:20:02;66.90;;;17.35;;
14203;SDS011;7185;51.854;6.622;2022-12-11T01:22:33;77.60;;;18.85;;
14203;SDS011;7185;51.854;6.622;2022-12-11T01:25:05;74.20;;;19.35;;
14203;SDS011;7185;51.854;6.622;2022-12-11T01:27:38;74.78;;;19.52;;
14203;SDS011;7185;51.854;6.622;2022-12-11T01:30:10;85.40;;;19.85;;
14203;SDS011;7185;51.854;6.622;2022-12-11T01:32:44;71.13;;;19.13;;
14203;SDS011;7185;51.854;6.622;2022-12-11T01:35:16;84.25;;;20.20;;
14203;SDS011;7185;51.854;6.622;2022-12-11T01:37:48;86.65;;;20.48;;
14203;SDS011;7185;51.854;6.622;2022-12-11T01:40:20;85.25;;;20.00;;
14203;SDS011;7185;51.854;6.622;2022-12-11T01:42:52;86.97;;;22.30;;
14203;SDS011;7185;51.854;6.622;2022-12-11T01:45:26;94.80;;;20.50;;
14203;SDS011;7185;51.854;6.622;2022-12-11T01:48:06;83.45;;;20.42;;
14203;SDS011;7185;51.854;6.622;2022-12-11T01:50:43;102.15;;;23.83;;
14203;SDS011;7185;51.854;6.622;2022-12-11T01:53:19;94.72;;;22.73;;
14203;SDS011;7185;51.854;6.622;2022-12-11T01:55:54;75.60;;;22.88;;
14203;SDS011;7185;51.854;6.622;2022-12-11T01:58:28;106.60;;;24.58;;
14203;SDS011;7185;51.854;6.622;2022-12-11T02:01:02;94.93;;;22.95;;
14203;SDS011;7185;51.854;6.622;2022-12-11T02:03:35;96.03;;;20.50;;
14203;SDS011;7185;51.854;6.622;2022-12-11T02:09:01;112.38;;;23.83;;
14203;SDS011;7185;51.854;6.622;2022-12-11T02:11:34;99.32;;;22.42;;
14203;SDS011;7185;51.854;6.622;2022-12-11T02:14:17;97.90;;;22.75;;
14203;SDS011;7185;51.854;6.622;2022-12-11T02:16:57;104.93;;;23.52;;
14203;SDS011;7185;51.854;6.622;2022-12-11T02:19:46;105.65;;;25.63;;
14203;SDS011;7185;51.854;6.622;2022-12-11T02:22:27;126.50;;;26.88;;
14203;SDS011;7185;51.854;6.622;2022-12-11T02:25:24;99.18;;;23.48;;
14203;SDS011;7185;51.854;6.622;2022-12-11T02:28:09;99.50;;;24.40;;
14203;SDS011;7185;51.854;6.622;2022-12-11T02:30:49;104.03;;;25.88;;
14203;SDS011;7185;51.854;6.622;2022-12-11T02:33:25;113.60;;;23.17;;
14203;SDS011;7185;51.854;6.622;2022-12-11T02:36:04;93.45;;;25.33;;
14203;SDS011;7185;51.854;6.622;2022-12-11T02:38:38;93.55;;;22.30;;
14203;SDS011;7185;51.854;6.622;2022-12-11T02:41:16;107.28;;;22.63;;
14203;SDS011;7185;51.854;6.622;2022-12-11T02:43:57;111.70;;;24.63;;
14203;SDS011;7185;51.854;6.622;2022-12-11T02:46:42;94.82;;;23.67;;
14203;SDS011;7185;51.854;6.622;2022-12-11T02:49:26;89.38;;;22.90;;
14203;SDS011;7185;51.854;6.622;2022-12-11T02:52:05;92.00;;;20.80;;
14203;SDS011;7185;51.854;6.622;2022-12-11T02:54:40;89.13;;;21.88;;
14203;SDS011;7185;51.854;6.622;2022-12-11T03:00:25;88.25;;;20.92;;
14203;SDS011;7185;51.854;6.622;2022-12-11T03:03:00;99.75;;;21.08;;
14203;SDS011;7185;51.854;6.622;2022-12-11T03:05:43;85.18;;;20.45;;
14203;SDS011;7185;51.854;6.622;2022-12-11T03:08:21;81.78;;;20.17;;
14203;SDS011;7185;51.854;6.622;2022-12-11T03:10:58;83.07;;;20.65;;
14203;SDS011;7185;51.854;6.622;2022-12-11T03:13:29;85.00;;;21.13;;
14203;SDS011;7185;51.854;6.622;2022-12-11T03:16:09;83.63;;;20.38;;
14203;SDS011;7185;51.854;6.622;2022-12-11T03:18:47;86.85;;;21.27;;
14203;SDS011;7185;51.854;6.622;2022-12-11T03:21:32;76.05;;;18.42;;
14203;SDS011;7185;51.854;6.622;2022-12-11T03:24:18;85.63;;;20.55;;
14203;SDS011;7185;51.854;6.622;2022-12-11T03:27:07;86.80;;;19.27;;
14203;SDS011;7185;51.854;6.622;2022-12-11T03:29:55;88.28;;;19.00;;
14203;SDS011;7185;51.854;6.622;2022-12-11T03:32:47;95.88;;;21.80;;
14203;SDS011;7185;51.854;6.622;2022-12-11T03:35:40;98.55;;;20.98;;
14203;SDS011;7185;51.854;6.622;2022-12-11T03:38:18;90.80;;;20.67;;
14203;SDS011;7185;51.854;6.622;2022-12-11T03:41:01;93.80;;;19.65;;
14203;SDS011;7185;51.854;6.622;2022-12-11T03:43:54;89.57;;;20.77;;
14203;SDS011;7185;51.854;6.622;2022-12-11T03:46:29;85.53;;;20.85;;
14203;SDS011;7185;51.854;6.622;2022-12-11T03:49:12;78.97;;;19.77;;
14203;SDS011;7185;51.854;6.622;2022-12-11T03:51:55;88.82;;;21.90;;
14203;SDS011;7185;51.854;6.622;2022-12-11T03:54:34;81.03;;;19.10;;
14203;SDS011;7185;51.854;6.622;2022-12-11T03:57:25;91.75;;;19.83;;
14203;SDS011;7185;51.854;6.622;2022-12-11T04:00:17;79.60;;;18.65;;
14203;SDS011;7185;51.854;6.622;2022-12-11T04:02:57;94.55;;;22.58;;
14203;SDS011;7185;51.854;6.622;2022-12-11T04:05:49;82.95;;;19.30;;
14203;SDS011;7185;51.854;6.622;2022-12-11T04:08:25;95.95;;;22.08;;
14203;SDS011;7185;51.854;6.622;2022-12-11T04:11:01;91.22;;;22.27;;
14203;SDS011;7185;51.854;6.622;2022-12-11T04:13:57;86.82;;;22.42;;
14203;SDS011;7185;51.854;6.622;2022-12-11T04:16:46;93.10;;;21.98;;
14203;SDS011;7185;51.854;6.622;2022-12-11T04:19:24;127.57;;;24.35;;
14203;SDS011;7185;51.854;6.622;2022-12-11T04:22:16;79.45;;;19.85;;
14203;SDS011;7185;51.854;6.622;2022-12-11T04:25:19;92.63;;;21.60;;
14203;SDS011;7185;51.854;6.622;2022-12-11T04:27:58;91.97;;;22.15;;
14203;SDS011;7185;51.854;6.622;2022-12-11T04:30:35;98.07;;;24.90;;
14203;SDS011;7185;51.854;6.622;2022-12-11T04:33:20;90.20;;;21.83;;
14203;SDS011;7185;51.854;6.622;2022-12-11T04:35:55;88.55;;;21.60;;
14203;SDS011;7185;51.854;6.622;2022-12-11T04:38:39;96.95;;;21.50;;
14203;SDS011;7185;51.854;6.622;2022-12-11T04:41:13;107.13;;;23.17;;
14203;SDS011;7185;51.854;6.622;2022-12-11T04:43:54;97.47;;;22.33;;
14203;SDS011;7185;51.854;6.622;2022-12-11T04:46:26;98.75;;;23.17;;
14203;SDS011;7185;51.854;6.622;2022-12-11T04:49:12;95.40;;;21.63;;
14203;SDS011;7185;51.854;6.622;2022-12-11T04:51:50;97.90;;;22.83;;
14203;SDS011;7185;51.854;6.622;2022-12-11T04:54:29;113.53;;;24.23;;
14203;SDS011;7185;51.854;6.622;2022-12-11T04:57:06;115.32;;;23.17;;
14203;SDS011;7185;51.854;6.622;2022-12-11T04:59:55;104.22;;;23.50;;
14203;SDS011;7185;51.854;6.622;2022-12-11T05:02:34;107.60;;;22.48;;
14203;SDS011;7185;51.854;6.622;2022-12-11T05:05:11;95.10;;;20.50;;
14203;SDS011;7185;51.854;6.622;2022-12-11T05:07:49;110.13;;;23.42;;
14203;SDS011;7185;51.854;6.622;2022-12-11T05:10:41;110.13;;;24.38;;
14203;SDS011;7185;51.854;6.622;2022-12-11T05:13:25;95.93;;;22.80;;
14203;SDS011;7185;51.854;6.622;2022-12-11T05:16:01;115.95;;;25.23;;
14203;SDS011;7185;51.854;6.622;2022-12-11T05:18:39;104.78;;;24.48;;
14203;SDS011;7185;51.854;6.622;2022-12-11T05:21:21;123.00;;;24.70;;
14203;SDS011;7185;51.854;6.622;2022-12-11T05:24:01;108.05;;;24.67;;
14203;SDS011;7185;51.854;6.622;2022-12-11T05:26:51;103.50;;;23.90;;
14203;SDS011;7185;51.854;6.622;2022-12-11T05:29:38;99.45;;;25.15;;
14203;SDS011;7185;51.854;6.622;2022-12-11T05:32:15;106.72;;;25.27;;
14203;SDS011;7185;51.854;6.622;2022-12-11T05:35:14;100.85;;;23.25;;
14203;SDS011;7185;51.854;6.622;2022-12-11T05:37:53;93.00;;;22.02;;
14203;SDS011;7185;51.854;6.622;2022-12-11T05:40:31;109.43;;;24.67;;
14203;SDS011;7185;51.854;6.622;2022-12-11T05:43:08;102.18;;;26.50;;
14203;SDS011;7185;51.854;6.622;2022-12-11T05:46:03;102.78;;;24.80;;
14203;SDS011;7185;51.854;6.622;2022-12-11T05:48:50;106.13;;;23.85;;
14203;SDS011;7185;51.854;6.622;2022-12-11T05:51:33;113.80;;;23.63;;
14203;SDS011;7185;51.854;6.622;2022-12-11T05:54:10;100.88;;;24.25;;
14203;SDS011;7185;51.854;6.622;2022-12-11T05:57:02;109.10;;;25.58;;
14203;SDS011;7185;51.854;6.622;2022-12-11T05:59:49;100.43;;;23.65;;
14203;SDS011;7185;51.854;6.622;2022-12-11T06:02:39;115.55;;;25.67;;
14203;SDS011;7185;51.854;6.622;2022-12-11T06:05:13;111.55;;;24.63;;
14203;SDS011;7185;51.854;6.622;2022-12-11T06:07:49;120.20;;;29.65;;
14203;SDS011;7185;51.854;6.622;2022-12-11T06:10:29;94.97;;;23.33;;
14203;SDS011;7185;51.854;6.622;2022-12-11T06:13:14;90.50;;;21.58;;
14203;SDS011;7185;51.854;6.622;2022-12-11T06:16:10;106.57;;;24.48;;
14203;SDS011;7185;51.854;6.622;2022-12-11T06:19:04;92.72;;;24.38;;
14203;SDS011;7185;51.854;6.622;2022-12-11T06:21:53;104.63;;;24.85;;
14203;SDS011;7185;51.854;6.622;2022-12-11T06:24:59;110.57;;;25.17;;
14203;SDS011;7185;51.854;6.622;2022-12-11T06:27:48;98.88;;;24.60;;
14203;SDS011;7185;51.854;6.622;2022-12-11T06:30:26;105.45;;;22.77;;
14203;SDS011;7185;51.854;6.622;2022-12-11T06:33:30;110.88;;;26.42;;
14203;SDS011;7185;51.854;6.622;2022-12-11T06:36:15;113.53;;;26.58;;
14203;SDS011;7185;51.854;6.622;2022-12-11T06:39:02;117.00;;;25.67;;
14203;SDS011;7185;51.854;6.622;2022-12-11T06:41:53;134.52;;;27.05;;
14203;SDS011;7185;51.854;6.622;2022-12-11T06:44:31;113.13;;;26.63;;
14203;SDS011;7185;51.854;6.622;2022-12-11T06:47:15;107.55;;;27.00;;
14203;SDS011;7185;51.854;6.622;2022-12-11T06:50:02;110.82;;;25.40;;
14203;SDS011;7185;51.854;6.622;2022-12-11T06:52:39;102.00;;;25.92;;
14203;SDS011;7185;51.854;6.622;2022-12-11T06:55:18;117.68;;;25.98;;
14203;SDS011;7185;51.854;6.622;2022-12-11T06:57:54;110.93;;;25.30;;
14203;SDS011;7185;51.854;6.622;2022-12-11T07:00:40;116.18;;;26.25;;
14203;SDS011;7185;51.854;6.622;2022-12-11T07:03:30;123.75;;;27.23;;
14203;SDS011;7185;51.854;6.622;2022-12-11T07:12:07;117.60;;;25.98;;
14203;SDS011;7185;51.854;6.622;2022-12-11T07:14:44;106.28;;;25.42;;
14203;SDS011;7185;51.854;6.622;2022-12-11T07:17:22;105.60;;;26.23;;
14203;SDS011;7185;51.854;6.622;2022-12-11T07:19:58;95.22;;;24.63;;
14203;SDS011;7185;51.854;6.622;2022-12-11T07:22:32;103.97;;;23.85;;
14203;SDS011;7185;51.854;6.622;2022-12-11T07:25:04;93.60;;;24.25;;
14203;SDS011;7185;51.854;6.622;2022-12-11T07:27:39;99.90;;;25.58;;
14203;SDS011;7185;51.854;6.622;2022-12-11T07:30:19;101.80;;;25.00;;
14203;SDS011;7185;51.854;6.622;2022-12-11T07:32:58;103.35;;;26.05;;
14203;SDS011;7185;51.854;6.622;2022-12-11T07:35:46;98.57;;;24.30;;
14203;SDS011;7185;51.854;6.622;2022-12-11T07:39:00;89.13;;;24.30;;
14203;SDS011;7185;51.854;6.622;2022-12-11T07:41:42;77.47;;;21.52;;
14203;SDS011;7185;51.854;6.622;2022-12-11T07:44:15;84.20;;;24.75;;
14203;SDS011;7185;51.854;6.622;2022-12-11T07:46:46;79.20;;;25.42;;
14203;SDS011;7185;51.854;6.622;2022-12-11T07:49:32;93.03;;;24.73;;
14203;SDS011;7185;51.854;6.622;2022-12-11T07:52:22;88.03;;;23.90;;
14203;SDS011;7185;51.854;6.622;2022-12-11T07:55:09;92.53;;;23.27;;
14203;SDS011;7185;51.854;6.622;2022-12-11T07:57:58;94.45;;;24.17;;
14203;SDS011;7185;51.854;6.622;2022-12-11T08:00:48;82.13;;;24.00;;
14203;SDS011;7185;51.854;6.622;2022-12-11T08:04:09;83.80;;;24.38;;
14203;SDS011;7185;51.854;6.622;2022-12-11T08:07:03;99.55;;;25.25;;
14203;SDS011;7185;51.854;6.622;2022-12-11T08:09:43;76.30;;;21.40;;
14203;SDS011;7185;51.854;6.622;2022-12-11T08:13:06;73.35;;;24.33;;
14203;SDS011;7185;51.854;6.622;2022-12-11T08:16:09;85.75;;;23.02;;
14203;SDS011;7185;51.854;6.622;2022-12-11T08:22:02;76.70;;;22.45;;
14203;SDS011;7185;51.854;6.622;2022-12-11T08:31:25;69.00;;;19.80;;
14203;SDS011;7185;51.854;6.622;2022-12-11T08:33:56;81.25;;;22.90;;
14203;SDS011;7185;51.854;6.622;2022-12-11T08:36:28;77.47;;;22.95;;
14203;SDS011;7185;51.854;6.622;2022-12-11T08:38:59;63.17;;;21.25;;
14203;SDS011;7185;51.854;6.622;2022-12-11T08:41:31;73.88;;;22.00;;
14203;SDS011;7185;51.854;6.622;2022-12-11T08:44:03;60.05;;;19.38;;
14203;SDS011;7185;51.854;6.622;2022-12-11T08:46:36;65.60;;;20.52;;
14203;SDS011;7185;51.854;6.622;2022-12-11T08:49:08;64.25;;;20.00;;
14203;SDS011;7185;51.854;6.622;2022-12-11T08:51:40;67.50;;;20.50;;
14203;SDS011;7185;51.854;6.622;2022-12-11T08:54:11;61.00;;;17.70;;
14203;SDS011;7185;51.854;6.622;2022-12-11T08:56:43;51.60;;;18.48;;
14203;SDS011;7185;51.854;6.622;2022-12-11T08:59:15;54.50;;;17.88;;
14203;SDS011;7185;51.854;6.622;2022-12-11T09:01:48;61.13;;;19.17;;
14203;SDS011;7185;51.854;6.622;2022-12-11T09:04:20;53.20;;;16.85;;
14203;SDS011;7185;51.854;6.622;2022-12-11T09:06:51;57.40;;;17.45;;
14203;SDS011;7185;51.854;6.622;2022-12-11T09:09:23;60.70;;;18.83;;
14203;SDS011;7185;51.854;6.622;2022-12-11T09:11:55;51.22;;;17.38;;
14203;SDS011;7185;51.854;6.622;2022-12-11T09:14:26;58.38;;;17.20;;
14203;SDS011;7185;51.854;6.622;2022-12-11T09:16:59;51.38;;;16.90;;
14203;SDS011;7185;51.854;6.622;2022-12-11T09:19:31;46.97;;;16.55;;
14203;SDS011;7185;51.854;6.622;2022-12-11T09:22:02;45.28;;;15.27;;
14203;SDS011;7185;51.854;6.622;2022-12-11T09:24:34;59.20;;;20.63;;
14203;SDS011;7185;51.854;6.622;2022-12-11T09:27:05;54.38;;;18.38;;
14203;SDS011;7185;51.854;6.622;2022-12-11T09:29:37;45.13;;;16.70;;
14203;SDS011;7185;51.854;6.622;2022-12-11T09:32:10;43.17;;;16.05;;
14203;SDS011;7185;51.854;6.622;2022-12-11T09:34:42;54.90;;;20.95;;
14203;SDS011;7185;51.854;6.622;2022-12-11T09:37:13;56.70;;;18.25;;
14203;SDS011;7185;51.854;6.622;2022-12-11T09:39:45;52.38;;;19.50;;
14203;SDS011;7185;51.854;6.622;2022-12-11T09:42:17;47.10;;;17.23;;
14203;SDS011;7185;51.854;6.622;2022-12-11T09:44:54;47.30;;;19.75;;
14203;SDS011;7185;51.854;6.622;2022-12-11T09:47:31;41.17;;;17.63;;
14203;SDS011;7185;51.854;6.622;2022-12-11T09:50:09;42.83;;;17.25;;
14203;SDS011;7185;51.854;6.622;2022-12-11T09:52:49;37.47;;;15.45;;
14203;SDS011;7185;51.854;6.622;2022-12-11T09:55:31;41.22;;;16.00;;
14203;SDS011;7185;51.854;6.622;2022-12-11T09:58:15;43.05;;;15.52;;
14203;SDS011;7185;51.854;6.622;2022-12-11T10:00:54;42.03;;;16.52;;
14203;SDS011;7185;51.854;6.622;2022-12-11T10:03:36;45.75;;;17.27;;
14203;SDS011;7185;51.854;6.622;2022-12-11T10:06:32;42.60;;;17.90;;
14203;SDS011;7185;51.854;6.622;2022-12-11T10:09:12;45.83;;;15.88;;
14203;SDS011;7185;51.854;6.622;2022-12-11T10:11:52;43.08;;;16.52;;
14203;SDS011;7185;51.854;6.622;2022-12-11T10:14:35;41.35;;;16.20;;
14203;SDS011;7185;51.854;6.622;2022-12-11T10:17:18;43.60;;;17.45;;
14203;SDS011;7185;51.854;6.622;2022-12-11T10:19:53;45.63;;;14.93;;
14203;SDS011;7185;51.854;6.622;2022-12-11T10:22:29;39.33;;;14.98;;
14203;SDS011;7185;51.854;6.622;2022-12-11T10:25:03;39.13;;;16.05;;
14203;SDS011;7185;51.854;6.622;2022-12-11T10:27:38;42.35;;;16.45;;
14203;SDS011;7185;51.854;6.622;2022-12-11T10:30:13;41.95;;;15.98;;
14203;SDS011;7185;51.854;6.622;2022-12-11T10:32:49;44.50;;;16.10;;
14203;SDS011;7185;51.854;6.622;2022-12-11T10:35:26;45.67;;;16.05;;
14203;SDS011;7185;51.854;6.622;2022-12-11T10:38:10;45.35;;;17.13;;
14203;SDS011;7185;51.854;6.622;2022-12-11T10:40:47;41.53;;;16.17;;
14203;SDS011;7185;51.854;6.622;2022-12-11T10:43:30;45.65;;;16.75;;
14203;SDS011;7185;51.854;6.622;2022-12-11T10:46:04;39.92;;;15.85;;
14203;SDS011;7185;51.854;6.622;2022-12-11T10:48:43;37.47;;;13.80;;
14203;SDS011;7185;51.854;6.622;2022-12-11T10:51:17;40.75;;;15.30;;
14203;SDS011;7185;51.854;6.622;2022-12-11T10:53:49;35.13;;;14.52;;
14203;SDS011;7185;51.854;6.622;2022-12-11T10:56:24;36.75;;;14.25;;
14203;SDS011;7185;51.854;6.622;2022-12-11T10:58:57;38.78;;;14.90;;
14203;SDS011;7185;51.854;6.622;2022-12-11T11:01:31;35.03;;;14.23;;
14203;SDS011;7185;51.854;6.622;2022-12-11T11:04:04;36.08;;;14.68;;
14203;SDS011;7185;51.854;6.622;2022-12-11T11:06:45;35.50;;;13.95;;
14203;SDS011;7185;51.854;6.622;2022-12-11T11:09:26;34.33;;;13.43;;
14203;SDS011;7185;51.854;6.622;2022-12-11T11:11:59;37.20;;;14.77;;
14203;SDS011;7185;51.854;6.622;2022-12-11T11:14:32;35.28;;;12.68;;
14203;SDS011;7185;51.854;6.622;2022-12-11T11:17:03;28.58;;;13.23;;
14203;SDS011;7185;51.854;6.622;2022-12-11T11:19:35;39.70;;;13.90;;
14203;SDS011;7185;51.854;6.622;2022-12-11T11:22:12;32.72;;;14.55;;
14203;SDS011;7185;51.854;6.622;2022-12-11T11:24:45;32.22;;;13.13;;
14203;SDS011;7185;51.854;6.622;2022-12-11T11:27:26;34.60;;;13.35;;
14203;SDS011;7185;51.854;6.622;2022-12-11T11:32:35;33.67;;;12.30;;
14203;SDS011;7185;51.854;6.622;2022-12-11T11:35:15;33.63;;;12.65;;
14203;SDS011;7185;51.854;6.622;2022-12-11T11:37:55;31.52;;;12.45;;
14203;SDS011;7185;51.854;6.622;2022-12-11T11:40:32;31.35;;;12.95;;
14203;SDS011;7185;51.854;6.622;2022-12-11T11:43:12;39.25;;;13.88;;
14203;SDS011;7185;51.854;6.622;2022-12-11T11:45:50;30.38;;;12.73;;
14203;SDS011;7185;51.854;6.622;2022-12-11T11:48:33;29.33;;;11.60;;
14203;SDS011;7185;51.854;6.622;2022-12-11T11:51:12;32.97;;;13.55;;
14203;SDS011;7185;51.854;6.622;2022-12-11T11:53:48;29.17;;;12.35;;
14203;SDS011;7185;51.854;6.622;2022-12-11T11:56:22;32.30;;;13.95;;
14203;SDS011;7185;51.854;6.622;2022-12-11T11:58:59;30.15;;;12.50;;
14203;SDS011;7185;51.854;6.622;2022-12-11T12:01:36;28.45;;;11.68;;
14203;SDS011;7185;51.854;6.622;2022-12-11T12:04:07;30.48;;;12.27;;
14203;SDS011;7185;51.854;6.622;2022-12-11T12:06:43;31.70;;;12.50;;
14203;SDS011;7185;51.854;6.622;2022-12-11T12:09:38;29.23;;;12.98;;
14203;SDS011;7185;51.854;6.622;2022-12-11T12:12:18;31.73;;;13.45;;
14203;SDS011;7185;51.854;6.622;2022-12-11T12:15:01;31.40;;;12.23;;
14203;SDS011;7185;51.854;6.622;2022-12-11T12:17:48;28.13;;;12.07;;
14203;SDS011;7185;51.854;6.622;2022-12-11T12:20:27;30.73;;;11.45;;
14203;SDS011;7185;51.854;6.622;2022-12-11T12:23:10;30.10;;;12.05;;
14203;SDS011;7185;51.854;6.622;2022-12-11T12:25:58;28.88;;;10.90;;
14203;SDS011;7185;51.854;6.622;2022-12-11T12:28:38;25.08;;;10.77;;
14203;SDS011;7185;51.854;6.622;2022-12-11T12:31:18;28.13;;;10.63;;
14203;SDS011;7185;51.854;6.622;2022-12-11T12:34:01;26.00;;;10.88;;
14203;SDS011;7185;51.854;6.622;2022-12-11T12:36:41;28.90;;;11.98;;
14203;SDS011;7185;51.854;6.622;2022-12-11T12:39:24;34.03;;;13.07;;
14203;SDS011;7185;51.854;6.622;2022-12-11T12:42:06;33.03;;;13.23;;
14203;SDS011;7185;51.854;6.622;2022-12-11T12:44:47;35.38;;;14.65;;
14203;SDS011;7185;51.854;6.622;2022-12-11T12:47:24;27.90;;;12.38;;
14203;SDS011;7185;51.854;6.622;2022-12-11T12:49:58;27.00;;;11.55;;
14203;SDS011;7185;51.854;6.622;2022-12-11T12:52:33;28.67;;;11.63;;
14203;SDS011;7185;51.854;6.622;2022-12-11T12:55:12;31.55;;;13.25;;
14203;SDS011;7185;51.854;6.622;2022-12-11T12:57:53;27.77;;;13.13;;
14203;SDS011;7185;51.854;6.622;2022-12-11T13:00:28;37.58;;;16.48;;
14203;SDS011;7185;51.854;6.622;2022-12-11T13:03:10;30.65;;;12.70;;
14203;SDS011;7185;51.854;6.622;2022-12-11T13:05:44;28.90;;;12.57;;
14203;SDS011;7185;51.854;6.622;2022-12-11T13:08:27;29.63;;;11.68;;
14203;SDS011;7185;51.854;6.622;2022-12-11T13:11:04;27.38;;;12.73;;
14203;SDS011;7185;51.854;6.622;2022-12-11T13:13:39;32.40;;;12.85;;
14203;SDS011;7185;51.854;6.622;2022-12-11T13:16:24;32.85;;;12.43;;
14203;SDS011;7185;51.854;6.622;2022-12-11T13:18:57;31.50;;;13.38;;
14203;SDS011;7185;51.854;6.622;2022-12-11T13:21:30;41.53;;;17.67;;
14203;SDS011;7185;51.854;6.622;2022-12-11T13:24:12;39.40;;;17.15;;
14203;SDS011;7185;51.854;6.622;2022-12-11T13:26:46;32.22;;;14.40;;
14203;SDS011;7185;51.854;6.622;2022-12-11T13:29:29;30.20;;;13.30;;
14203;SDS011;7185;51.854;6.622;2022-12-11T13:32:04;28.30;;;13.65;;
14203;SDS011;7185;51.854;6.622;2022-12-11T13:34:52;30.95;;;12.05;;
14203;SDS011;7185;51.854;6.622;2022-12-11T13:37:28;37.38;;;16.00;;
14203;SDS011;7185;51.854;6.622;2022-12-11T13:40:04;30.05;;;13.75;;
14203;SDS011;7185;51.854;6.622;2022-12-11T13:42:42;27.20;;;12.07;;
14203;SDS011;7185;51.854;6.622;2022-12-11T13:45:22;31.40;;;12.63;;
14203;SDS011;7185;51.854;6.622;2022-12-11T13:47:59;31.35;;;13.60;;
14203;SDS011;7185;51.854;6.622;2022-12-11T13:50:32;28.08;;;11.65;;
14203;SDS011;7185;51.854;6.622;2022-12-11T13:53:05;30.08;;;13.38;;
14203;SDS011;7185;51.854;6.622;2022-12-11T13:55:36;33.20;;;13.20;;
14203;SDS011;7185;51.854;6.622;2022-12-11T13:58:14;35.28;;;16.00;;
14203;SDS011;7185;51.854;6.622;2022-12-11T14:00:55;39.85;;;17.08;;
14203;SDS011;7185;51.854;6.622;2022-12-11T14:03:34;31.30;;;14.05;;
14203;SDS011;7185;51.854;6.622;2022-12-11T14:06:07;30.35;;;12.10;;
14203;SDS011;7185;51.854;6.622;2022-12-11T14:08:41;25.48;;;11.30;;
14203;SDS011;7185;51.854;6.622;2022-12-11T14:11:16;26.42;;;11.40;;
14203;SDS011;7185;51.854;6.622;2022-12-11T14:13:52;31.10;;;14.15;;
14203;SDS011;7185;51.854;6.622;2022-12-11T14:16:28;29.85;;;13.40;;
14203;SDS011;7185;51.854;6.622;2022-12-11T14:19:02;29.33;;;12.57;;
14203;SDS011;7185;51.854;6.622;2022-12-11T14:21:35;28.10;;;11.98;;
14203;SDS011;7185;51.854;6.622;2022-12-11T14:24:10;26.95;;;11.65;;
14203;SDS011;7185;51.854;6.622;2022-12-11T14:26:48;23.20;;;10.43;;
14203;SDS011;7185;51.854;6.622;2022-12-11T14:29:24;27.08;;;11.80;;
14203;SDS011;7185;51.854;6.622;2022-12-11T14:32:00;27.20;;;11.60;;
14203;SDS011;7185;51.854;6.622;2022-12-11T14:34:33;24.27;;;11.20;;
14203;SDS011;7185;51.854;6.622;2022-12-11T14:37:07;27.95;;;13.05;;
14203;SDS011;7185;51.854;6.622;2022-12-11T14:39:39;26.90;;;10.90;;
14203;SDS011;7185;51.854;6.622;2022-12-11T14:42:16;24.90;;;12.20;;
14203;SDS011;7185;51.854;6.622;2022-12-11T14:44:51;23.17;;;10.35;;
14203;SDS011;7185;51.854;6.622;2022-12-11T14:47:29;29.03;;;11.37;;
14203;SDS011;7185;51.854;6.622;2022-12-11T14:50:05;27.90;;;11.30;;
14203;SDS011;7185;51.854;6.622;2022-12-11T14:52:42;27.42;;;12.15;;
14203;SDS011;7185;51.854;6.622;2022-12-11T14:55:18;27.50;;;11.73;;
14203;SDS011;7185;51.854;6.622;2022-12-11T14:57:53;27.48;;;11.20;;
14203;SDS011;7185;51.854;6.622;2022-12-11T15:00:29;26.60;;;12.10;;
14203;SDS011;7185;51.854;6.622;2022-12-11T15:03:04;32.15;;;13.10;;
14203;SDS011;7185;51.854;6.622;2022-12-11T15:05:50;27.90;;;11.93;;
14203;SDS011;7185;51.854;6.622;2022-12-11T15:08:25;22.90;;;10.93;;
14203;SDS011;7185;51.854;6.622;2022-12-11T15:11:02;29.73;;;12.70;;
14203;SDS011;7185;51.854;6.622;2022-12-11T15:13:38;30.60;;;12.57;;
14203;SDS011;7185;51.854;6.622;2022-12-11T15:16:23;26.50;;;11.75;;
14203;SDS011;7185;51.854;6.622;2022-12-11T15:18:58;26.65;;;13.05;;
14203;SDS011;7185;51.854;6.622;2022-12-11T15:21:32;31.00;;;13.63;;
14203;SDS011;7185;51.854;6.622;2022-12-11T15:24:17;33.00;;;15.32;;
14203;SDS011;7185;51.854;6.622;2022-12-11T15:26:56;35.40;;;14.13;;
14203;SDS011;7185;51.854;6.622;2022-12-11T15:29:31;32.42;;;14.98;;
14203;SDS011;7185;51.854;6.622;2022-12-11T15:32:14;31.38;;;15.10;;
14203;SDS011;7185;51.854;6.622;2022-12-11T15:34:49;34.55;;;13.60;;
14203;SDS011;7185;51.854;6.622;2022-12-11T15:37:23;32.13;;;13.90;;
14203;SDS011;7185;51.854;6.622;2022-12-11T15:39:56;35.50;;;15.70;;
14203;SDS011;7185;51.854;6.622;2022-12-11T15:42:30;34.08;;;14.23;;
14203;SDS011;7185;51.854;6.622;2022-12-11T15:45:05;30.52;;;14.05;;
14203;SDS011;7185;51.854;6.622;2022-12-11T15:47:38;35.22;;;16.88;;
14203;SDS011;7185;51.854;6.622;2022-12-11T15:50:13;36.28;;;14.77;;
14203;SDS011;7185;51.854;6.622;2022-12-11T15:52:47;36.58;;;17.10;;
14203;SDS011;7185;51.854;6.622;2022-12-11T15:55:19;34.35;;;16.13;;
14203;SDS011;7185;51.854;6.622;2022-12-11T15:57:53;32.22;;;16.17;;
14203;SDS011;7185;51.854;6.622;2022-12-11T16:00:28;39.85;;;15.95;;
14203;SDS011;7185;51.854;6.622;2022-12-11T16:02:59;36.50;;;15.85;;
14203;SDS011;7185;51.854;6.622;2022-12-11T16:05:32;36.03;;;16.40;;